Portada
METAR-TAF:

METAR-TAF

Aeropuertos :

Aeropuerto de Biskra

Biskra, Argelia

latitud: 34-48N, longitud: 005-44E, altitud: 87 m

Observación

El informe se hizo hace 44 minutos, a las 00:00 UTC
Viento 5 kt del noreste
Temperatura 31°C
Humedad 24%
Presión 1013 hPa
Visibilidad 10 km o más
sin nubes por debajo de 1500 m y sin presencia de cumulonimbus.

METAR: DAUB 090000Z 05005KT CAVOK 31/08 Q1013

Hora: 01:44 (00:44 UTC)

Pronóstico

El informe se hizo hace 1 hora y 44 minutos, a las 23:00 UTC
Pronóstico válido del 09 a las 00 UTC al 09 a las 24 UTC
Viento 8 kt del sur-sureste
Visibilidad 10 km o más
sin nubes por debajo de 1500 m y sin presencia de cumulonimbus.
Evolucionando progresivamente
del 09 a las 06 UTC al 09 a las 08 UTC
Viento 15 kt del este
Evolucionando progresivamente
del 09 a las 14 UTC al 09 a las 17 UTC
Viento 8 kt del noreste

TAF: DAUB 082300Z 0900/0924 16008KT CAVOK BECMG 0906/0908 10015KT BECMG 0914/0917 04008KT

Observaciones y pronósticos meteorológicos de más de 4000 aeropuertos (mensajes METAR y TAF).

Los puntos amarillos y rojos representan las estaciones disponibles.

Ponga el ratón en el punto deseado para ver el nombre de la estación.

Haga clic para ver las observaciones y los pronósticos meteorológicos.

Para cambiar el mapa : haga clic en los botones verdes con una cruz de color negro para hacer un zoom, en el botón verde con un guión para alejar o en las flechas verdes para mapas adyacentes.


METAR-TAF: